S51DM-13 Weather Reports


Display with metric or nautical units.
time (UTC)temp
F
wind
direction
speed
MPH
gust
MPH
rain 1hr
in
rain 24hr
in
rain mn
in
humidity
%
barometer
mb
20260906014503 59 0 0.0 0.0 0.00 0.00 0.00 96 1022.7
20260906013603 59 0 0.0 0.0 0.00 0.00 0.00 96 1022.7
20260906012919 60 0 0.0 0.0 0.00 0.00 0.00 96 1022.7
20260906011803 60 0 0.0 0.0 0.00 0.00 0.00 96 1022.8
20260906011119 60 0 0.0 0.0 0.00 0.00 0.00 96 1022.8
20260906010216 60 0 0.0 0.0 0.00 0.00 0.00 96 1022.9
20260906005618 60 0 0.0 0.0 0.00 0.00 0.00 96 1022.7
20260906004503 60 0 0.0 0.0 0.00 0.00 0.00 96 1022.7
20260906003603 60 0 0.0 0.0 0.00 0.00 0.00 96 1022.6
20260906002705 61 0 0.0 0.0 0.00 0.00 0.00 95 1022.6
20260906001805 61 0 0.0 0.0 0.00 0.00 0.00 95 1022.7
20260906000903 61 0 0.0 0.0 0.00 0.00 0.00 95 1022.5
20260906000004 61 0 0.0 0.0 0.00 0.00 0.00 95 1022.4
20260905235618 61 0 0.0 0.0 0.00 0.00 0.00 95 1022.3
20260905234505 62 0 0.0 0.0 0.00 0.00 0.00 95 1022.5
20260905233818 62 0 0.0 0.0 0.00 0.00 0.00 95 1022.4
20260905232705 62 0 0.0 0.0 0.00 0.00 0.00 94 1022.3
20260905232019 62 0 0.0 0.0 0.00 0.00 0.00 94 1022.2
20260905230903 62 0 0.0 0.0 0.00 0.00 0.00 94 1022.3
20260905230005 62 0 0.0 0.0 0.00 0.00 0.00 94 1022.3
20260905225403 62 0 0.0 0.0 0.00 0.00 0.00 94 1022.3
20260905224503 63 0 0.0 0.0 0.00 0.00 0.00 93 1022.2
20260905223605 63 0 0.0 0.0 0.00 0.00 0.00 93 1022.1
20260905222703 63 0 0.0 0.0 0.00 0.00 0.00 93 1022.0
20260905221805 63 2 0.0 1.0 0.00 0.00 0.00 93 1022.3
20260905220903 64 0 0.0 0.0 0.00 0.00 0.00 92 1022.0
20260905220005 64 0 0.0 0.0 0.00 0.00 0.00 92 1022.3
20260905215405 64 0 0.0 0.0 0.00 0.00 0.00 92 1022.1
20260905214505 64 2 0.0 1.0 0.00 0.00 0.00 91 1022.0
20260905213603 65 20 0.0 1.0 0.00 0.00 0.00 90 1021.8
20260905212705 65 19 0.0 1.0 0.00 0.00 0.00 90 1021.8
20260905212018 65 19 0.0 1.0 0.00 0.00 0.00 90 1021.5
20260905210905 65 0 0.0 0.0 0.00 0.00 0.00 90 1021.5
20260905210005 65 0 0.0 0.0 0.00 0.00 0.00 90 1021.7
20260905205405 65 0 0.0 0.0 0.00 0.00 0.00 90 1021.4
20260905204505 65 34 0.0 1.0 0.00 0.00 0.00 89 1021.5
20260905203817 66 26 0.0 2.0 0.00 0.00 0.00 89 1021.4
20260905202705 66 19 0.0 1.0 0.00 0.00 0.00 88 1021.5
20260905202018 66 25 0.0 1.0 0.00 0.00 0.00 88 1021.3
20260905200905 66 32 0.0 1.0 0.00 0.00 0.00 87 1021.2
20260905200004 65 0 0.0 0.0 0.00 0.00 0.00 87 1021.4
20260905195403 66 0 0.0 0.0 0.00 0.00 0.00 86 1021.1
20260905194505 66 0 0.0 0.0 0.00 0.00 0.00 85 1020.9
20260905193605 67 0 0.0 0.0 0.00 0.00 0.00 84 1020.6
20260905192705 67 40 0.0 1.0 0.00 0.00 0.00 83 1020.7
20260905191805 67 49 0.0 1.0 0.00 0.00 0.00 83 1020.5
20260905190903 67 49 0.0 1.0 0.00 0.00 0.00 82 1020.4
20260905190003 67 0 0.0 0.0 0.00 0.00 0.00 82 1020.2
20260905185403 67 64 0.0 1.0 0.00 0.00 0.00 81 1020.5
20260905184505 67 88 0.0 1.0 0.00 0.00 0.00 80 1020.4
20260905183605 68 108 0.0 1.0 0.00 0.00 0.00 76 1020.4
20260905182705 68 0 0.0 0.0 0.00 0.00 0.00 73 1019.6
20260905182018 68 0 0.0 0.0 0.00 0.00 0.00 72 1019.7
20260905180903 69 113 0.0 1.0 0.00 0.00 0.00 71 1019.8
20260905180003 69 0 0.0 0.0 0.00 0.00 0.00 69 1019.6
20260905175404 69 0 0.0 0.0 0.00 0.00 0.00 68 1019.4
20260905174503 69 0 0.0 0.0 0.00 0.00 0.00 67 1019.5
20260905173605 71 0 0.0 0.0 0.00 0.00 0.00 66 1018.9
20260905172705 71 0 0.0 0.0 0.00 0.00 0.00 63 1019.0
20260905172019 71 114 0.0 1.0 0.00 0.00 0.00 64 1018.8
20260905170905 71 0 0.0 0.0 0.00 0.00 0.00 63 1018.7
20260905170220 72 0 0.0 0.0 0.00 0.00 0.00 61 1018.9
20260905165403 73 130 0.0 1.0 0.00 0.00 0.00 60 1018.6
20260905164505 73 34 0.0 1.0 0.00 0.00 0.00 58 1018.6
20260905163605 74 336 0.0 1.0 0.00 0.00 0.00 56 1018.6
20260905162703 74 137 0.0 2.0 0.00 0.00 0.00 55 1018.5
20260905161805 74 128 0.0 1.0 0.00 0.00 0.00 55 1018.4
20260905160905 74 110 1.0 3.0 0.00 0.00 0.00 55 1018.5
20260905160005 75 119 1.0 2.0 0.00 0.00 0.00 53 1018.4
20260905155403 75 111 1.0 2.0 0.00 0.00 0.00 53 1018.5
20260905154718 76 75 0.0 1.0 0.00 0.00 0.00 52 1018.7
20260905153603 76 77 0.0 2.0 0.00 0.00 0.00 52 1018.6
20260905152704 76 94 0.0 2.0 0.00 0.00 0.00 52 1018.7
20260905151804 78 118 0.0 2.0 0.00 0.00 0.00 50 1018.6
20260905150905 76 93 1.0 2.0 0.00 0.00 0.00 54 1018.4
20260905150004 78 140 1.0 2.0 0.00 0.00 0.00 50 1018.5
20260905145411 79 123 1.0 2.0 0.00 0.00 0.00 48 1018.6
20260905144505 79 88 0.0 3.0 0.00 0.00 0.00 47 1018.5
20260905143603 76 105 0.0 2.0 0.00 0.00 0.00 55 1018.5
20260905142919 73 306 0.0 2.0 0.00 0.00 0.00 61 1018.7
20260905141805 72 334 1.0 4.0 0.00 0.00 0.00 65 1019.1
20260905140909 71 315 0.0 1.0 0.00 0.00 0.00 64 1019.3
20260905140005 71 284 0.0 3.0 0.00 0.00 0.00 66 1019.0
20260905135405 70 273 1.0 3.0 0.00 0.00 0.00 66 1019.2
20260905134504 70 333 2.0 6.0 0.00 0.00 0.00 68 1019.0
20260905133605 71 312 2.0 6.0 0.00 0.00 0.00 65 1019.0
20260905132703 72 71 1.0 2.0 0.00 0.00 0.00 62 1018.8